sensor_id;sensor_type;location;lat;lon;timestamp;temperature;humidity
6672;DHT22;3372;48.690;12.362;2022-10-31T00:01:14;13.40;64.80
6672;DHT22;3372;48.690;12.362;2022-10-31T00:03:40;13.50;64.70
6672;DHT22;3372;48.690;12.362;2022-10-31T00:06:06;13.40;65.70
6672;DHT22;3372;48.690;12.362;2022-10-31T00:08:32;13.40;66.40
6672;DHT22;3372;48.690;12.362;2022-10-31T00:10:57;13.40;66.20
6672;DHT22;3372;48.690;12.362;2022-10-31T00:13:23;13.40;65.90
6672;DHT22;3372;48.690;12.362;2022-10-31T00:15:48;13.40;65.50
6672;DHT22;3372;48.690;12.362;2022-10-31T00:18:14;13.40;65.30
6672;DHT22;3372;48.690;12.362;2022-10-31T00:20:40;13.40;64.90
6672;DHT22;3372;48.690;12.362;2022-10-31T00:23:06;13.40;66.20
6672;DHT22;3372;48.690;12.362;2022-10-31T00:25:37;13.40;65.40
6672;DHT22;3372;48.690;12.362;2022-10-31T00:28:07;13.40;65.40
6672;DHT22;3372;48.690;12.362;2022-10-31T00:30:34;13.40;64.00
6672;DHT22;3372;48.690;12.362;2022-10-31T00:33:00;13.40;63.30
6672;DHT22;3372;48.690;12.362;2022-10-31T00:35:25;13.30;63.20
6672;DHT22;3372;48.690;12.362;2022-10-31T00:37:52;13.40;63.30
6672;DHT22;3372;48.690;12.362;2022-10-31T00:40:17;13.30;63.10
6672;DHT22;3372;48.690;12.362;2022-10-31T00:42:43;13.20;63.10
6672;DHT22;3372;48.690;12.362;2022-10-31T00:45:09;13.20;64.40
6672;DHT22;3372;48.690;12.362;2022-10-31T00:47:35;13.20;63.70
6672;DHT22;3372;48.690;12.362;2022-10-31T00:50:01;13.20;63.30
6672;DHT22;3372;48.690;12.362;2022-10-31T00:52:26;13.10;63.10
6672;DHT22;3372;48.690;12.362;2022-10-31T00:54:52;13.20;63.10
6672;DHT22;3372;48.690;12.362;2022-10-31T00:57:17;13.10;63.10
6672;DHT22;3372;48.690;12.362;2022-10-31T00:59:43;13.10;63.10
6672;DHT22;3372;48.690;12.362;2022-10-31T01:02:08;13.00;62.40
6672;DHT22;3372;48.690;12.362;2022-10-31T01:04:34;13.20;62.50
6672;DHT22;3372;48.690;12.362;2022-10-31T01:07:00;13.20;62.40
6672;DHT22;3372;48.690;12.362;2022-10-31T01:09:25;13.10;62.00
6672;DHT22;3372;48.690;12.362;2022-10-31T01:11:51;13.00;61.60
6672;DHT22;3372;48.690;12.362;2022-10-31T01:14:16;13.00;61.70
6672;DHT22;3372;48.690;12.362;2022-10-31T01:16:42;12.90;62.40
6672;DHT22;3372;48.690;12.362;2022-10-31T01:19:08;12.90;62.10
6672;DHT22;3372;48.690;12.362;2022-10-31T01:21:33;12.80;62.30
6672;DHT22;3372;48.690;12.362;2022-10-31T01:23:59;12.80;62.40
6672;DHT22;3372;48.690;12.362;2022-10-31T01:26:29;12.80;62.30
6672;DHT22;3372;48.690;12.362;2022-10-31T01:28:58;12.80;62.80
6672;DHT22;3372;48.690;12.362;2022-10-31T01:31:30;12.80;62.80
6672;DHT22;3372;48.690;12.362;2022-10-31T01:33:56;12.80;62.80
6672;DHT22;3372;48.690;12.362;2022-10-31T01:36:25;12.80;62.70
6672;DHT22;3372;48.690;12.362;2022-10-31T01:38:53;12.80;62.70
6672;DHT22;3372;48.690;12.362;2022-10-31T01:41:21;12.70;62.50
6672;DHT22;3372;48.690;12.362;2022-10-31T01:46:52;12.80;62.30
6672;DHT22;3372;48.690;12.362;2022-10-31T01:51:58;12.80;61.50
6672;DHT22;3372;48.690;12.362;2022-10-31T01:54:29;12.70;61.50
6672;DHT22;3372;48.690;12.362;2022-10-31T01:56:57;12.60;61.50
6672;DHT22;3372;48.690;12.362;2022-10-31T01:59:25;12.60;61.50
6672;DHT22;3372;48.690;12.362;2022-10-31T02:01:53;12.60;61.40
6672;DHT22;3372;48.690;12.362;2022-10-31T02:04:19;12.60;61.50
6672;DHT22;3372;48.690;12.362;2022-10-31T02:07:09;12.60;61.10
6672;DHT22;3372;48.690;12.362;2022-10-31T02:09:36;12.50;62.50
6672;DHT22;3372;48.690;12.362;2022-10-31T02:12:02;12.60;62.60
6672;DHT22;3372;48.690;12.362;2022-10-31T02:14:30;12.50;62.10
6672;DHT22;3372;48.690;12.362;2022-10-31T02:16:56;12.50;62.10
6672;DHT22;3372;48.690;12.362;2022-10-31T02:22:17;12.60;62.20
6672;DHT22;3372;48.690;12.362;2022-10-31T02:25:05;12.60;61.70
6672;DHT22;3372;48.690;12.362;2022-10-31T02:30:40;12.50;62.50
6672;DHT22;3372;48.690;12.362;2022-10-31T02:33:48;12.40;62.40
6672;DHT22;3372;48.690;12.362;2022-10-31T02:36:26;12.30;63.60
6672;DHT22;3372;48.690;12.362;2022-10-31T02:41:48;12.40;63.30
6672;DHT22;3372;48.690;12.362;2022-10-31T02:44:25;12.40;64.30
6672;DHT22;3372;48.690;12.362;2022-10-31T02:52:27;12.40;64.50
6672;DHT22;3372;48.690;12.362;2022-10-31T02:54:53;12.40;64.00
6672;DHT22;3372;48.690;12.362;2022-10-31T02:57:29;12.40;63.80
6672;DHT22;3372;48.690;12.362;2022-10-31T03:00:14;12.30;63.90
6672;DHT22;3372;48.690;12.362;2022-10-31T03:05:48;12.30;64.20
6672;DHT22;3372;48.690;12.362;2022-10-31T03:08:31;12.20;63.70
6672;DHT22;3372;48.690;12.362;2022-10-31T03:11:01;12.30;64.10
6672;DHT22;3372;48.690;12.362;2022-10-31T03:16:14;12.30;63.60
6672;DHT22;3372;48.690;12.362;2022-10-31T03:18:50;12.20;63.60
6672;DHT22;3372;48.690;12.362;2022-10-31T03:21:22;12.20;63.80
6672;DHT22;3372;48.690;12.362;2022-10-31T03:23:52;12.10;64.10
6672;DHT22;3372;48.690;12.362;2022-10-31T03:26:20;12.20;63.70
6672;DHT22;3372;48.690;12.362;2022-10-31T03:28:55;12.10;64.20
6672;DHT22;3372;48.690;12.362;2022-10-31T03:31:27;12.20;64.60
6672;DHT22;3372;48.690;12.362;2022-10-31T03:33:56;12.20;63.90
6672;DHT22;3372;48.690;12.362;2022-10-31T03:36:24;12.20;64.00
6672;DHT22;3372;48.690;12.362;2022-10-31T03:38:51;12.20;64.10
6672;DHT22;3372;48.690;12.362;2022-10-31T03:41:21;12.10;63.90
6672;DHT22;3372;48.690;12.362;2022-10-31T03:43:55;12.10;63.90
6672;DHT22;3372;48.690;12.362;2022-10-31T03:46:24;12.10;64.20
6672;DHT22;3372;48.690;12.362;2022-10-31T03:48:51;12.10;64.00
6672;DHT22;3372;48.690;12.362;2022-10-31T03:51:32;12.10;64.00
6672;DHT22;3372;48.690;12.362;2022-10-31T04:00:03;12.10;64.90
6672;DHT22;3372;48.690;12.362;2022-10-31T04:02:31;12.10;64.60
6672;DHT22;3372;48.690;12.362;2022-10-31T04:04:58;12.00;64.20
6672;DHT22;3372;48.690;12.362;2022-10-31T04:07:29;12.10;64.70
6672;DHT22;3372;48.690;12.362;2022-10-31T04:09:56;12.00;64.70
6672;DHT22;3372;48.690;12.362;2022-10-31T04:12:24;12.00;64.20
6672;DHT22;3372;48.690;12.362;2022-10-31T04:14:51;11.90;64.00
6672;DHT22;3372;48.690;12.362;2022-10-31T04:17:21;11.90;64.00
6672;DHT22;3372;48.690;12.362;2022-10-31T04:19:48;11.90;64.30
6672;DHT22;3372;48.690;12.362;2022-10-31T04:22:13;11.80;64.40
6672;DHT22;3372;48.690;12.362;2022-10-31T04:24:40;11.80;64.20
6672;DHT22;3372;48.690;12.362;2022-10-31T04:27:06;11.80;64.10
6672;DHT22;3372;48.690;12.362;2022-10-31T04:29:32;11.80;64.10
6672;DHT22;3372;48.690;12.362;2022-10-31T04:31:58;11.80;64.00
6672;DHT22;3372;48.690;12.362;2022-10-31T04:34:23;11.80;64.10
6672;DHT22;3372;48.690;12.362;2022-10-31T04:36:49;11.70;64.00
6672;DHT22;3372;48.690;12.362;2022-10-31T04:39:14;11.80;63.60
6672;DHT22;3372;48.690;12.362;2022-10-31T04:41:40;11.70;63.90
6672;DHT22;3372;48.690;12.362;2022-10-31T04:44:06;11.60;63.60
6672;DHT22;3372;48.690;12.362;2022-10-31T04:46:31;11.60;63.80
6672;DHT22;3372;48.690;12.362;2022-10-31T04:48:57;11.60;63.60
6672;DHT22;3372;48.690;12.362;2022-10-31T04:51:22;11.60;64.60
6672;DHT22;3372;48.690;12.362;2022-10-31T04:53:48;11.60;63.70
6672;DHT22;3372;48.690;12.362;2022-10-31T04:56:14;11.60;63.80
6672;DHT22;3372;48.690;12.362;2022-10-31T04:58:40;11.60;63.60
6672;DHT22;3372;48.690;12.362;2022-10-31T05:01:05;11.60;63.20
6672;DHT22;3372;48.690;12.362;2022-10-31T05:03:31;11.60;63.10
6672;DHT22;3372;48.690;12.362;2022-10-31T05:05:56;11.60;63.50
6672;DHT22;3372;48.690;12.362;2022-10-31T05:08:22;11.60;62.90
6672;DHT22;3372;48.690;12.362;2022-10-31T05:10:47;11.70;62.60
6672;DHT22;3372;48.690;12.362;2022-10-31T05:13:13;11.60;62.20
6672;DHT22;3372;48.690;12.362;2022-10-31T05:15:40;11.60;61.70
6672;DHT22;3372;48.690;12.362;2022-10-31T05:18:05;11.60;61.70
6672;DHT22;3372;48.690;12.362;2022-10-31T05:20:31;11.60;61.60
6672;DHT22;3372;48.690;12.362;2022-10-31T05:22:57;11.60;61.60
6672;DHT22;3372;48.690;12.362;2022-10-31T05:25:26;11.60;61.60
6672;DHT22;3372;48.690;12.362;2022-10-31T05:27:52;11.60;61.40
6672;DHT22;3372;48.690;12.362;2022-10-31T05:30:23;11.50;61.50
6672;DHT22;3372;48.690;12.362;2022-10-31T05:32:50;11.60;61.80
6672;DHT22;3372;48.690;12.362;2022-10-31T05:35:31;11.50;62.60
6672;DHT22;3372;48.690;12.362;2022-10-31T05:37:57;11.50;62.60
6672;DHT22;3372;48.690;12.362;2022-10-31T05:40:23;11.60;63.70
6672;DHT22;3372;48.690;12.362;2022-10-31T05:42:52;11.60;64.70
6672;DHT22;3372;48.690;12.362;2022-10-31T05:45:18;11.60;63.60
6672;DHT22;3372;48.690;12.362;2022-10-31T05:47:55;11.60;64.20
6672;DHT22;3372;48.690;12.362;2022-10-31T05:50:21;11.60;64.30
6672;DHT22;3372;48.690;12.362;2022-10-31T05:52:47;11.60;64.30
6672;DHT22;3372;48.690;12.362;2022-10-31T05:55:13;11.60;64.60
6672;DHT22;3372;48.690;12.362;2022-10-31T05:57:39;11.60;64.90
6672;DHT22;3372;48.690;12.362;2022-10-31T06:00:05;11.60;65.60
6672;DHT22;3372;48.690;12.362;2022-10-31T06:02:31;11.60;65.70
6672;DHT22;3372;48.690;12.362;2022-10-31T06:05:00;11.70;66.00
6672;DHT22;3372;48.690;12.362;2022-10-31T06:07:26;11.70;65.60
6672;DHT22;3372;48.690;12.362;2022-10-31T06:09:52;11.70;66.20
6672;DHT22;3372;48.690;12.362;2022-10-31T06:12:17;11.80;67.10
6672;DHT22;3372;48.690;12.362;2022-10-31T06:14:43;11.80;67.70
6672;DHT22;3372;48.690;12.362;2022-10-31T06:17:08;11.80;68.20
6672;DHT22;3372;48.690;12.362;2022-10-31T06:19:34;11.80;68.00
6672;DHT22;3372;48.690;12.362;2022-10-31T06:21:59;11.90;69.00
6672;DHT22;3372;48.690;12.362;2022-10-31T06:24:25;11.90;68.90
6672;DHT22;3372;48.690;12.362;2022-10-31T06:26:50;11.90;69.60
6672;DHT22;3372;48.690;12.362;2022-10-31T06:29:16;12.00;69.70
6672;DHT22;3372;48.690;12.362;2022-10-31T06:31:42;12.00;70.90
6672;DHT22;3372;48.690;12.362;2022-10-31T06:34:07;12.00;71.10
6672;DHT22;3372;48.690;12.362;2022-10-31T06:36:33;12.00;71.60
6672;DHT22;3372;48.690;12.362;2022-10-31T06:38:59;12.10;72.80
6672;DHT22;3372;48.690;12.362;2022-10-31T06:41:25;12.10;72.80
6672;DHT22;3372;48.690;12.362;2022-10-31T06:43:51;12.10;74.10
6672;DHT22;3372;48.690;12.362;2022-10-31T06:46:16;12.20;74.80
6672;DHT22;3372;48.690;12.362;2022-10-31T06:48:42;12.30;75.20
6672;DHT22;3372;48.690;12.362;2022-10-31T06:51:07;12.30;75.00
6672;DHT22;3372;48.690;12.362;2022-10-31T06:53:33;12.40;75.60
6672;DHT22;3372;48.690;12.362;2022-10-31T06:55:59;12.40;76.00
6672;DHT22;3372;48.690;12.362;2022-10-31T06:58:24;12.50;76.00
6672;DHT22;3372;48.690;12.362;2022-10-31T07:00:51;12.50;76.00
6672;DHT22;3372;48.690;12.362;2022-10-31T07:03:17;12.40;78.10
6672;DHT22;3372;48.690;12.362;2022-10-31T07:05:43;12.60;77.50
6672;DHT22;3372;48.690;12.362;2022-10-31T07:08:11;12.60;78.20
6672;DHT22;3372;48.690;12.362;2022-10-31T07:10:38;12.60;78.40
6672;DHT22;3372;48.690;12.362;2022-10-31T07:13:08;12.50;80.30
6672;DHT22;3372;48.690;12.362;2022-10-31T07:15:35;12.50;80.60
6672;DHT22;3372;48.690;12.362;2022-10-31T07:18:06;12.60;81.50
6672;DHT22;3372;48.690;12.362;2022-10-31T07:20:33;12.70;81.70
6672;DHT22;3372;48.690;12.362;2022-10-31T07:22:58;12.70;81.70
6672;DHT22;3372;48.690;12.362;2022-10-31T07:25:24;12.80;82.10
6672;DHT22;3372;48.690;12.362;2022-10-31T07:27:50;12.90;83.00
6672;DHT22;3372;48.690;12.362;2022-10-31T07:30:16;12.90;81.60
6672;DHT22;3372;48.690;12.362;2022-10-31T07:32:46;13.10;80.90
6672;DHT22;3372;48.690;12.362;2022-10-31T07:35:14;13.30;79.60
6672;DHT22;3372;48.690;12.362;2022-10-31T07:37:40;13.30;79.70
6672;DHT22;3372;48.690;12.362;2022-10-31T07:40:07;13.20;80.30
6672;DHT22;3372;48.690;12.362;2022-10-31T07:42:37;13.30;81.30
6672;DHT22;3372;48.690;12.362;2022-10-31T07:45:04;13.40;80.50
6672;DHT22;3372;48.690;12.362;2022-10-31T07:47:30;13.60;80.20
6672;DHT22;3372;48.690;12.362;2022-10-31T07:50:02;13.80;79.40
6672;DHT22;3372;48.690;12.362;2022-10-31T07:52:28;14.00;77.70
6672;DHT22;3372;48.690;12.362;2022-10-31T07:54:54;14.20;76.70
6672;DHT22;3372;48.690;12.362;2022-10-31T07:57:19;14.30;76.90
6672;DHT22;3372;48.690;12.362;2022-10-31T07:59:45;14.50;75.80
6672;DHT22;3372;48.690;12.362;2022-10-31T08:02:10;14.50;75.10
6672;DHT22;3372;48.690;12.362;2022-10-31T08:04:36;14.60;75.10
6672;DHT22;3372;48.690;12.362;2022-10-31T08:07:01;14.70;75.20
6672;DHT22;3372;48.690;12.362;2022-10-31T08:09:27;14.80;75.30
6672;DHT22;3372;48.690;12.362;2022-10-31T08:11:53;14.90;75.40
6672;DHT22;3372;48.690;12.362;2022-10-31T08:14:18;15.10;75.00
6672;DHT22;3372;48.690;12.362;2022-10-31T08:16:44;15.20;74.60
6672;DHT22;3372;48.690;12.362;2022-10-31T08:19:10;15.20;73.90
6672;DHT22;3372;48.690;12.362;2022-10-31T08:21:36;15.30;73.60
6672;DHT22;3372;48.690;12.362;2022-10-31T08:24:01;15.40;73.40
6672;DHT22;3372;48.690;12.362;2022-10-31T08:26:27;15.50;73.30
6672;DHT22;3372;48.690;12.362;2022-10-31T08:28:52;15.60;72.60
6672;DHT22;3372;48.690;12.362;2022-10-31T08:31:20;15.70;72.10
6672;DHT22;3372;48.690;12.362;2022-10-31T08:33:46;15.80;72.30
6672;DHT22;3372;48.690;12.362;2022-10-31T08:36:11;15.90;72.40
6672;DHT22;3372;48.690;12.362;2022-10-31T08:38:37;16.00;72.20
6672;DHT22;3372;48.690;12.362;2022-10-31T08:41:02;16.20;72.40
6672;DHT22;3372;48.690;12.362;2022-10-31T08:43:28;16.30;72.20
6672;DHT22;3372;48.690;12.362;2022-10-31T08:45:53;15.90;72.70
6672;DHT22;3372;48.690;12.362;2022-10-31T08:48:20;15.70;74.70
6672;DHT22;3372;48.690;12.362;2022-10-31T08:50:46;16.00;75.90
6672;DHT22;3372;48.690;12.362;2022-10-31T08:53:14;16.10;74.90
6672;DHT22;3372;48.690;12.362;2022-10-31T08:55:41;16.30;74.20
6672;DHT22;3372;48.690;12.362;2022-10-31T08:58:10;16.50;73.70
6672;DHT22;3372;48.690;12.362;2022-10-31T09:00:37;16.60;73.90
6672;DHT22;3372;48.690;12.362;2022-10-31T09:03:11;16.70;73.10
6672;DHT22;3372;48.690;12.362;2022-10-31T09:05:37;16.80;72.20
6672;DHT22;3372;48.690;12.362;2022-10-31T09:08:04;16.80;72.50
6672;DHT22;3372;48.690;12.362;2022-10-31T09:10:32;16.90;71.20
6672;DHT22;3372;48.690;12.362;2022-10-31T09:12:59;16.60;70.40
6672;DHT22;3372;48.690;12.362;2022-10-31T09:15:26;16.20;72.50
6672;DHT22;3372;48.690;12.362;2022-10-31T09:17:52;16.30;73.70
6672;DHT22;3372;48.690;12.362;2022-10-31T09:20:18;16.50;73.20
6672;DHT22;3372;48.690;12.362;2022-10-31T09:22:44;16.40;74.10
6672;DHT22;3372;48.690;12.362;2022-10-31T09:25:10;16.30;75.80
6672;DHT22;3372;48.690;12.362;2022-10-31T09:27:35;16.40;76.50
6672;DHT22;3372;48.690;12.362;2022-10-31T09:30:01;16.30;76.70
6672;DHT22;3372;48.690;12.362;2022-10-31T09:32:27;16.20;76.80
6672;DHT22;3372;48.690;12.362;2022-10-31T09:34:52;16.30;76.70
6672;DHT22;3372;48.690;12.362;2022-10-31T09:37:18;16.40;76.70
6672;DHT22;3372;48.690;12.362;2022-10-31T09:39:43;16.50;76.40
6672;DHT22;3372;48.690;12.362;2022-10-31T09:45:10;16.40;76.50
6672;DHT22;3372;48.690;12.362;2022-10-31T09:50:27;16.60;76.40
6672;DHT22;3372;48.690;12.362;2022-10-31T09:53:13;16.70;76.40
6672;DHT22;3372;48.690;12.362;2022-10-31T09:55:44;16.80;77.10
6672;DHT22;3372;48.690;12.362;2022-10-31T09:58:18;16.90;76.00
6672;DHT22;3372;48.690;12.362;2022-10-31T10:00:46;17.00;75.90
6672;DHT22;3372;48.690;12.362;2022-10-31T10:03:37;16.80;76.70
6672;DHT22;3372;48.690;12.362;2022-10-31T10:08:39;16.80;77.70
6672;DHT22;3372;48.690;12.362;2022-10-31T10:21:57;17.20;78.00
6672;DHT22;3372;48.690;12.362;2022-10-31T10:30:18;17.40;76.60
6672;DHT22;3372;48.690;12.362;2022-10-31T10:32:53;17.30;77.00
6672;DHT22;3372;48.690;12.362;2022-10-31T10:38:09;17.40;77.50
6672;DHT22;3372;48.690;12.362;2022-10-31T10:40:35;17.50;77.80
6672;DHT22;3372;48.690;12.362;2022-10-31T10:59:48;17.70;78.00
6672;DHT22;3372;48.690;12.362;2022-10-31T11:02:20;17.80;78.00
6672;DHT22;3372;48.690;12.362;2022-10-31T11:04:53;17.80;78.70
6672;DHT22;3372;48.690;12.362;2022-10-31T11:07:20;17.90;78.20
6672;DHT22;3372;48.690;12.362;2022-10-31T11:09:46;17.90;78.20
6672;DHT22;3372;48.690;12.362;2022-10-31T11:14:47;17.90;78.20
6672;DHT22;3372;48.690;12.362;2022-10-31T11:17:37;17.90;78.50
6672;DHT22;3372;48.690;12.362;2022-10-31T11:22:42;18.00;78.40
6672;DHT22;3372;48.690;12.362;2022-10-31T11:25:25;18.00;78.30
6672;DHT22;3372;48.690;12.362;2022-10-31T11:28:02;18.10;79.10
6672;DHT22;3372;48.690;12.362;2022-10-31T11:30:29;18.10;78.60
6672;DHT22;3372;48.690;12.362;2022-10-31T11:32:57;18.20;78.50
6672;DHT22;3372;48.690;12.362;2022-10-31T11:35:24;18.20;78.50
6672;DHT22;3372;48.690;12.362;2022-10-31T11:37:53;18.20;78.50
6672;DHT22;3372;48.690;12.362;2022-10-31T11:40:26;18.20;78.90
6672;DHT22;3372;48.690;12.362;2022-10-31T11:42:54;18.20;79.00
6672;DHT22;3372;48.690;12.362;2022-10-31T11:47:51;18.30;79.40
6672;DHT22;3372;48.690;12.362;2022-10-31T11:50:24;18.40;79.00
6672;DHT22;3372;48.690;12.362;2022-10-31T11:52:52;18.40;78.70
6672;DHT22;3372;48.690;12.362;2022-10-31T11:55:36;18.50;78.70
6672;DHT22;3372;48.690;12.362;2022-10-31T11:58:03;18.60;78.80
6672;DHT22;3372;48.690;12.362;2022-10-31T12:05:42;18.50;78.30
6672;DHT22;3372;48.690;12.362;2022-10-31T12:08:11;18.60;79.10
6672;DHT22;3372;48.690;12.362;2022-10-31T12:16:31;18.70;78.00
6672;DHT22;3372;48.690;12.362;2022-10-31T12:19:20;18.70;77.90
6672;DHT22;3372;48.690;12.362;2022-10-31T12:22:23;18.70;77.40
6672;DHT22;3372;48.690;12.362;2022-10-31T12:27:51;18.60;77.30
6672;DHT22;3372;48.690;12.362;2022-10-31T12:30:23;18.50;78.10
6672;DHT22;3372;48.690;12.362;2022-10-31T12:38:20;18.60;76.80
6672;DHT22;3372;48.690;12.362;2022-10-31T12:40:59;18.70;77.10
6672;DHT22;3372;48.690;12.362;2022-10-31T12:44:02;18.70;75.20
6672;DHT22;3372;48.690;12.362;2022-10-31T12:49:45;18.50;75.90
6672;DHT22;3372;48.690;12.362;2022-10-31T13:00:28;18.40;76.10
6672;DHT22;3372;48.690;12.362;2022-10-31T13:03:28;18.50;75.80
6672;DHT22;3372;48.690;12.362;2022-10-31T13:05:59;18.40;76.20
6672;DHT22;3372;48.690;12.362;2022-10-31T13:08:45;18.30;76.30
6672;DHT22;3372;48.690;12.362;2022-10-31T13:11:39;18.20;76.50
6672;DHT22;3372;48.690;12.362;2022-10-31T13:14:12;18.30;76.10
6672;DHT22;3372;48.690;12.362;2022-10-31T13:16:43;18.30;75.80
6672;DHT22;3372;48.690;12.362;2022-10-31T13:19:23;18.20;76.60
6672;DHT22;3372;48.690;12.362;2022-10-31T13:21:55;18.10;76.70
6672;DHT22;3372;48.690;12.362;2022-10-31T13:24:31;18.20;76.40
6672;DHT22;3372;48.690;12.362;2022-10-31T13:27:03;18.20;76.30
6672;DHT22;3372;48.690;12.362;2022-10-31T13:32:26;18.40;75.20
6672;DHT22;3372;48.690;12.362;2022-10-31T13:34:55;18.30;75.50
6672;DHT22;3372;48.690;12.362;2022-10-31T13:37:39;18.30;76.40
6672;DHT22;3372;48.690;12.362;2022-10-31T13:40:42;18.30;76.50
6672;DHT22;3372;48.690;12.362;2022-10-31T13:46:25;18.40;76.50
6672;DHT22;3372;48.690;12.362;2022-10-31T13:48:51;18.40;76.20
6672;DHT22;3372;48.690;12.362;2022-10-31T13:51:28;18.40;75.60
6672;DHT22;3372;48.690;12.362;2022-10-31T13:56:22;18.40;76.10
6672;DHT22;3372;48.690;12.362;2022-10-31T14:02:17;18.40;75.30
6672;DHT22;3372;48.690;12.362;2022-10-31T14:04:48;18.30;75.80
6672;DHT22;3372;48.690;12.362;2022-10-31T14:07:16;18.30;75.70
6672;DHT22;3372;48.690;12.362;2022-10-31T14:10:04;18.30;75.70
6672;DHT22;3372;48.690;12.362;2022-10-31T14:12:38;18.20;75.50
6672;DHT22;3372;48.690;12.362;2022-10-31T14:17:50;18.00;76.00
6672;DHT22;3372;48.690;12.362;2022-10-31T14:22:42;18.00;76.10
6672;DHT22;3372;48.690;12.362;2022-10-31T14:25:36;18.00;75.90
6672;DHT22;3372;48.690;12.362;2022-10-31T14:28:30;18.00;76.20
6672;DHT22;3372;48.690;12.362;2022-10-31T14:30:57;18.00;76.30
6672;DHT22;3372;48.690;12.362;2022-10-31T14:33:25;18.10;76.00
6672;DHT22;3372;48.690;12.362;2022-10-31T14:36:00;18.00;75.60
6672;DHT22;3372;48.690;12.362;2022-10-31T14:39:01;18.10;75.70
6672;DHT22;3372;48.690;12.362;2022-10-31T14:41:48;18.00;75.40
6672;DHT22;3372;48.690;12.362;2022-10-31T14:44:32;18.00;75.80
6672;DHT22;3372;48.690;12.362;2022-10-31T14:47:16;18.00;75.80
6672;DHT22;3372;48.690;12.362;2022-10-31T14:50:03;18.00;75.90
6672;DHT22;3372;48.690;12.362;2022-10-31T14:52:30;17.80;75.70
6672;DHT22;3372;48.690;12.362;2022-10-31T14:54:59;17.70;76.70
6672;DHT22;3372;48.690;12.362;2022-10-31T14:57:31;17.80;76.40
6672;DHT22;3372;48.690;12.362;2022-10-31T15:00:02;17.80;76.30
6672;DHT22;3372;48.690;12.362;2022-10-31T15:02:57;17.60;77.90
6672;DHT22;3372;48.690;12.362;2022-10-31T15:05:26;17.40;78.40
6672;DHT22;3372;48.690;12.362;2022-10-31T15:07:56;17.40;79.30
6672;DHT22;3372;48.690;12.362;2022-10-31T15:10:31;17.40;78.90
6672;DHT22;3372;48.690;12.362;2022-10-31T15:13:28;17.50;78.30
6672;DHT22;3372;48.690;12.362;2022-10-31T15:15:55;17.60;78.10
6672;DHT22;3372;48.690;12.362;2022-10-31T15:18:26;17.40;78.50
6672;DHT22;3372;48.690;12.362;2022-10-31T15:20:54;17.20;80.10
6672;DHT22;3372;48.690;12.362;2022-10-31T15:23:28;17.30;79.90
6672;DHT22;3372;48.690;12.362;2022-10-31T15:25:59;17.30;80.00
6672;DHT22;3372;48.690;12.362;2022-10-31T15:28:26;17.40;78.90
6672;DHT22;3372;48.690;12.362;2022-10-31T15:30:54;17.40;78.50
6672;DHT22;3372;48.690;12.362;2022-10-31T15:33:28;17.40;77.70
6672;DHT22;3372;48.690;12.362;2022-10-31T15:35:56;17.40;77.70
6672;DHT22;3372;48.690;12.362;2022-10-31T15:38:23;17.20;78.60
6672;DHT22;3372;48.690;12.362;2022-10-31T15:43:22;17.20;79.10
6672;DHT22;3372;48.690;12.362;2022-10-31T15:45:48;17.20;78.50
6672;DHT22;3372;48.690;12.362;2022-10-31T15:48:17;17.20;78.30
6672;DHT22;3372;48.690;12.362;2022-10-31T15:50:55;17.20;77.60
6672;DHT22;3372;48.690;12.362;2022-10-31T15:53:26;17.20;77.50
6672;DHT22;3372;48.690;12.362;2022-10-31T15:56:07;17.20;77.10
6672;DHT22;3372;48.690;12.362;2022-10-31T15:58:39;17.20;76.70
6672;DHT22;3372;48.690;12.362;2022-10-31T16:06:33;16.80;77.20
6672;DHT22;3372;48.690;12.362;2022-10-31T16:08:59;16.70;77.50
6672;DHT22;3372;48.690;12.362;2022-10-31T16:14:04;16.80;76.30
6672;DHT22;3372;48.690;12.362;2022-10-31T16:16:31;16.80;75.50
6672;DHT22;3372;48.690;12.362;2022-10-31T16:18:58;16.70;74.80
6672;DHT22;3372;48.690;12.362;2022-10-31T16:21:37;16.70;74.50
6672;DHT22;3372;48.690;12.362;2022-10-31T16:24:27;16.70;73.50
6672;DHT22;3372;48.690;12.362;2022-10-31T16:27:07;16.70;73.90
6672;DHT22;3372;48.690;12.362;2022-10-31T16:29:46;16.60;73.90
6672;DHT22;3372;48.690;12.362;2022-10-31T16:32:35;16.60;73.40
6672;DHT22;3372;48.690;12.362;2022-10-31T16:37:40;16.50;72.80
6672;DHT22;3372;48.690;12.362;2022-10-31T16:40:06;16.40;72.50
6672;DHT22;3372;48.690;12.362;2022-10-31T16:42:32;16.40;72.20
6672;DHT22;3372;48.690;12.362;2022-10-31T16:44:58;16.30;71.70
6672;DHT22;3372;48.690;12.362;2022-10-31T16:47:25;16.30;71.40
6672;DHT22;3372;48.690;12.362;2022-10-31T16:49:50;16.30;71.30
6672;DHT22;3372;48.690;12.362;2022-10-31T16:52:17;16.10;71.30
6672;DHT22;3372;48.690;12.362;2022-10-31T16:54:43;15.90;72.10
6672;DHT22;3372;48.690;12.362;2022-10-31T16:57:18;15.90;73.40
6672;DHT22;3372;48.690;12.362;2022-10-31T16:59:48;15.90;75.00
6672;DHT22;3372;48.690;12.362;2022-10-31T17:02:16;15.90;74.30
6672;DHT22;3372;48.690;12.362;2022-10-31T17:04:42;15.90;73.50
6672;DHT22;3372;48.690;12.362;2022-10-31T17:07:08;15.90;72.50
6672;DHT22;3372;48.690;12.362;2022-10-31T17:09:34;16.00;72.50
6672;DHT22;3372;48.690;12.362;2022-10-31T17:11:59;15.90;72.10
6672;DHT22;3372;48.690;12.362;2022-10-31T17:14:25;16.00;71.40
6672;DHT22;3372;48.690;12.362;2022-10-31T17:16:51;15.90;71.00
6672;DHT22;3372;48.690;12.362;2022-10-31T17:19:17;15.80;70.90
6672;DHT22;3372;48.690;12.362;2022-10-31T17:21:43;15.80;71.40
6672;DHT22;3372;48.690;12.362;2022-10-31T17:24:13;15.70;70.80
6672;DHT22;3372;48.690;12.362;2022-10-31T17:26:39;15.70;71.20
6672;DHT22;3372;48.690;12.362;2022-10-31T17:29:05;15.50;71.20
6672;DHT22;3372;48.690;12.362;2022-10-31T17:31:33;15.10;75.50
6672;DHT22;3372;48.690;12.362;2022-10-31T17:34:00;15.10;76.70
6672;DHT22;3372;48.690;12.362;2022-10-31T17:36:28;15.00;78.60
6672;DHT22;3372;48.690;12.362;2022-10-31T17:38:53;14.90;80.10
6672;DHT22;3372;48.690;12.362;2022-10-31T17:41:19;14.70;82.70
6672;DHT22;3372;48.690;12.362;2022-10-31T17:43:44;14.60;83.40
6672;DHT22;3372;48.690;12.362;2022-10-31T17:46:10;14.80;82.40
6672;DHT22;3372;48.690;12.362;2022-10-31T17:48:36;15.00;80.30
6672;DHT22;3372;48.690;12.362;2022-10-31T17:51:04;15.10;79.00
6672;DHT22;3372;48.690;12.362;2022-10-31T17:53:31;15.10;77.10
6672;DHT22;3372;48.690;12.362;2022-10-31T17:56:05;15.10;76.30
6672;DHT22;3372;48.690;12.362;2022-10-31T17:58:32;15.10;75.90
6672;DHT22;3372;48.690;12.362;2022-10-31T18:00:58;15.20;75.60
6672;DHT22;3372;48.690;12.362;2022-10-31T18:03:25;15.20;75.30
6672;DHT22;3372;48.690;12.362;2022-10-31T18:05:56;15.20;74.60
6672;DHT22;3372;48.690;12.362;2022-10-31T18:08:26;15.20;73.40
6672;DHT22;3372;48.690;12.362;2022-10-31T18:10:52;15.10;72.20
6672;DHT22;3372;48.690;12.362;2022-10-31T18:13:17;15.00;71.40
6672;DHT22;3372;48.690;12.362;2022-10-31T18:15:43;15.00;71.70
6672;DHT22;3372;48.690;12.362;2022-10-31T18:18:08;15.00;71.40
6672;DHT22;3372;48.690;12.362;2022-10-31T18:20:34;14.90;71.00
6672;DHT22;3372;48.690;12.362;2022-10-31T18:22:59;14.80;70.50
6672;DHT22;3372;48.690;12.362;2022-10-31T18:25:25;14.90;70.70